Time;durP1;ratioP1;P1;durP2;ratioP2;P2;SDS_P1;SDS_P2;PMS_P1;PMS_P2;Temp;Humidity;BMP_temperature;BMP_pressure;BME280_temperature;BME280_humidity;BME280_pressure;Samples;Min_cycle;Max_cycle;Signal;HPM_P1;HPM_P2
2023/12/16 00:01:42;;;;;;;7.15;6.47;;;;;;;;;;5066608;28;20856;-82
2023/12/16 00:04:08;;;;;;;6.47;5.87;;;;;;;;;;5055576;28;20396;-81
2023/12/16 00:06:33;;;;;;;7.28;6.57;;;;;;;;;;5055624;28;20397;-81
2023/12/16 00:08:59;;;;;;;6.90;6.30;;;;;;;;;;5055808;28;20867;-82
2023/12/16 00:11:25;;;;;;;7.35;6.65;;;;;;;;;;5055329;28;20388;-81
2023/12/16 00:13:51;;;;;;;6.50;5.90;;;;;;;;;;5056208;28;20415;-82
2023/12/16 00:16:17;;;;;;;7.40;6.70;;;;;;;;;;5055495;28;20724;-82
2023/12/16 00:18:43;;;;;;;7.05;6.35;;;;;;;;;;5055179;28;20386;-82
2023/12/16 00:21:09;;;;;;;6.93;6.22;;;;;;;;;;5055799;28;20396;-81
2023/12/16 00:23:35;;;;;;;7.30;6.70;;;;;;;;;;5055332;28;20743;-82
2023/12/16 00:26:01;;;;;;;6.82;6.22;;;;;;;;;;5056036;28;20429;-82
2023/12/16 00:28:27;;;;;;;7.65;6.95;;;;;;;;;;5055689;28;20384;-82
2023/12/16 00:30:53;;;;;;;7.82;6.88;;;;;;;;;;5055399;28;20378;-82
2023/12/16 00:33:19;;;;;;;8.35;7.63;;;;;;;;;;5053820;28;20377;-82
2023/12/16 00:35:46;;;;;;;8.35;7.50;;;;;;;;;;5061768;28;20395;-82
2023/12/16 00:38:15;;;;;;;9.60;8.68;;;;;;;;;;5064385;28;20786;-82
2023/12/16 00:40:41;;;;;;;9.60;8.70;;;;;;;;;;5056576;28;20385;-82
2023/12/16 00:43:07;;;;;;;8.38;7.45;;;;;;;;;;5067270;28;20410;-82
2023/12/16 00:45:33;;;;;;;7.90;7.10;;;;;;;;;;5042575;28;20401;-82
2023/12/16 00:47:59;;;;;;;7.63;6.93;;;;;;;;;;5056955;28;20401;-82
2023/12/16 00:50:25;;;;;;;7.22;6.53;;;;;;;;;;5056481;28;20389;-82
2023/12/16 00:52:51;;;;;;;7.75;6.95;;;;;;;;;;5057075;28;20393;-82
2023/12/16 00:55:17;;;;;;;6.47;5.95;;;;;;;;;;5056642;28;20781;-82
2023/12/16 00:57:42;;;;;;;7.10;6.50;;;;;;;;;;5055989;28;20435;-82
2023/12/16 01:00:09;;;;;;;8.35;7.55;;;;;;;;;;5056597;28;20397;-82
2023/12/16 01:02:35;;;;;;;7.40;6.35;;;;;;;;;;5058330;28;20871;-82
2023/12/16 01:05:01;;;;;;;7.55;6.85;;;;;;;;;;5068425;28;20407;-82
2023/12/16 01:07:27;;;;;;;6.97;6.38;;;;;;;;;;5060554;28;20400;-82
2023/12/16 01:09:53;;;;;;;6.40;5.80;;;;;;;;;;5054801;28;20412;-82
2023/12/16 01:12:19;;;;;;;6.90;6.30;;;;;;;;;;5055838;28;20373;-82
2023/12/16 01:14:45;;;;;;;7.28;6.63;;;;;;;;;;5056102;28;20378;-82
2023/12/16 01:17:11;;;;;;;7.55;6.75;;;;;;;;;;5066201;28;20382;-82
2023/12/16 01:19:37;;;;;;;7.18;6.57;;;;;;;;;;5058173;28;20471;-82
2023/12/16 01:22:03;;;;;;;6.85;6.32;;;;;;;;;;5054770;28;20389;-82
2023/12/16 01:24:32;;;;;;;7.90;7.10;;;;;;;;;;5056375;28;20398;-82
2023/12/16 01:26:58;;;;;;;7.45;6.78;;;;;;;;;;5056537;28;20377;-82
2023/12/16 01:29:24;;;;;;;6.63;6.13;;;;;;;;;;5057060;28;20393;-82
2023/12/16 01:31:50;;;;;;;7.13;6.43;;;;;;;;;;5059915;28;20369;-82
2023/12/16 01:34:16;;;;;;;7.57;6.97;;;;;;;;;;5060315;28;20449;-82
2023/12/16 01:36:42;;;;;;;6.97;6.38;;;;;;;;;;5073279;28;20376;-82
2023/12/16 01:39:08;;;;;;;7.25;6.60;;;;;;;;;;5059395;28;20778;-82
2023/12/16 01:41:34;;;;;;;7.20;6.57;;;;;;;;;;5067680;28;20378;-82
2023/12/16 01:44:00;;;;;;;7.40;6.70;;;;;;;;;;5057786;28;20385;-82
2023/12/16 01:46:27;;;;;;;7.00;6.40;;;;;;;;;;5059378;28;20403;-82
2023/12/16 01:48:53;;;;;;;7.03;6.43;;;;;;;;;;5072061;28;20423;-82
2023/12/16 01:51:19;;;;;;;6.83;6.33;;;;;;;;;;5059396;28;20951;-82
2023/12/16 01:53:45;;;;;;;6.70;6.10;;;;;;;;;;5059059;28;20425;-82
2023/12/16 01:56:12;;;;;;;6.97;6.38;;;;;;;;;;5059938;28;20389;-82
2023/12/16 01:58:39;;;;;;;6.55;5.95;;;;;;;;;;5071901;28;20440;-82
2023/12/16 02:01:05;;;;;;;6.95;6.35;;;;;;;;;;5061199;28;20377;-82
2023/12/16 02:03:31;;;;;;;6.75;6.15;;;;;;;;;;5059531;28;20370;-82
2023/12/16 02:05:58;;;;;;;6.68;6.13;;;;;;;;;;5058929;28;20423;-82
2023/12/16 02:08:24;;;;;;;7.27;6.67;;;;;;;;;;5059637;28;20381;-82
2023/12/16 02:10:50;;;;;;;6.60;6.00;;;;;;;;;;5059476;28;20385;-82
2023/12/16 02:13:18;;;;;;;6.87;6.27;;;;;;;;;;5058374;28;20412;-82
2023/12/16 02:15:44;;;;;;;6.85;6.32;;;;;;;;;;5058824;28;20605;-82
2023/12/16 02:18:11;;;;;;;7.10;6.40;;;;;;;;;;5059276;28;20394;-82
2023/12/16 02:20:37;;;;;;;7.28;6.57;;;;;;;;;;5059026;28;20407;-82
2023/12/16 02:23:03;;;;;;;6.57;6.03;;;;;;;;;;5067845;28;20408;-82
2023/12/16 02:25:29;;;;;;;7.10;6.40;;;;;;;;;;5069618;28;20899;-82
2023/12/16 02:27:55;;;;;;;7.05;6.45;;;;;;;;;;5071740;28;20372;-82
2023/12/16 02:30:23;;;;;;;11.73;9.27;;;;;;;;;;5066690;28;20493;-82
2023/12/16 02:32:49;;;;;;;8.65;7.75;;;;;;;;;;5065246;28;20461;-82
2023/12/16 02:35:15;;;;;;;8.23;7.45;;;;;;;;;;5059966;28;20826;-82
2023/12/16 02:37:41;;;;;;;8.23;7.43;;;;;;;;;;5070124;28;20373;-82
2023/12/16 02:40:07;;;;;;;7.88;7.13;;;;;;;;;;5059093;28;20382;-82
2023/12/16 02:42:33;;;;;;;7.95;7.30;;;;;;;;;;5058077;28;20389;-82
2023/12/16 02:44:59;;;;;;;8.20;7.40;;;;;;;;;;5059287;28;20496;-82
2023/12/16 02:47:25;;;;;;;10.17;8.90;;;;;;;;;;5063385;28;20400;-82
2023/12/16 02:49:51;;;;;;;9.05;7.95;;;;;;;;;;5068842;28;20451;-82
2023/12/16 02:52:17;;;;;;;9.68;8.77;;;;;;;;;;5060722;28;20377;-82
2023/12/16 02:54:43;;;;;;;9.75;8.77;;;;;;;;;;5070912;28;20389;-82
2023/12/16 02:57:09;;;;;;;13.95;10.50;;;;;;;;;;5058539;28;20511;-82
2023/12/16 02:59:36;;;;;;;12.43;9.90;;;;;;;;;;5041356;28;20883;-82
2023/12/16 03:02:02;;;;;;;10.60;9.55;;;;;;;;;;5057017;28;20385;-82
2023/12/16 03:04:28;;;;;;;13.90;10.55;;;;;;;;;;5064476;28;20407;-82
2023/12/16 03:06:54;;;;;;;20.60;12.82;;;;;;;;;;5076365;28;20391;-82
2023/12/16 03:09:20;;;;;;;17.17;12.30;;;;;;;;;;5059786;28;20385;-82
2023/12/16 03:11:46;;;;;;;20.45;13.88;;;;;;;;;;5057166;28;20381;-82
2023/12/16 03:14:12;;;;;;;17.52;12.50;;;;;;;;;;5056398;28;20413;-82
2023/12/16 03:16:38;;;;;;;18.35;12.55;;;;;;;;;;5058532;28;20705;-82
2023/12/16 03:19:04;;;;;;;21.65;12.52;;;;;;;;;;5059509;28;20468;-82
2023/12/16 03:21:31;;;;;;;16.23;11.75;;;;;;;;;;5077876;28;20376;-82
2023/12/16 03:23:56;;;;;;;14.35;11.45;;;;;;;;;;5058666;28;20369;-82
2023/12/16 03:26:22;;;;;;;15.85;12.05;;;;;;;;;;5072361;28;20900;-83
2023/12/16 03:28:48;;;;;;;14.95;11.38;;;;;;;;;;5058161;28;20377;-82
2023/12/16 03:31:15;;;;;;;14.32;11.60;;;;;;;;;;5058428;28;20373;-82
2023/12/16 03:33:41;;;;;;;13.30;11.00;;;;;;;;;;5058915;28;20377;-82
2023/12/16 03:36:09;;;;;;;13.73;11.27;;;;;;;;;;5067712;28;20387;-82
2023/12/16 03:38:35;;;;;;;13.77;10.95;;;;;;;;;;5062927;28;20544;-82
2023/12/16 03:41:01;;;;;;;11.87;10.67;;;;;;;;;;5058647;28;20409;-82
2023/12/16 03:43:28;;;;;;;11.20;9.88;;;;;;;;;;5058725;28;20385;-82
2023/12/16 03:45:54;;;;;;;11.18;9.98;;;;;;;;;;5070332;28;20901;-82
2023/12/16 03:48:20;;;;;;;10.50;9.43;;;;;;;;;;5069709;28;20490;-82
2023/12/16 03:50:46;;;;;;;11.95;10.27;;;;;;;;;;5061280;28;20374;-82
2023/12/16 03:53:11;;;;;;;10.55;9.55;;;;;;;;;;5058569;28;20381;-82
2023/12/16 03:55:37;;;;;;;12.90;10.18;;;;;;;;;;5057841;28;20390;-82
2023/12/16 03:58:03;;;;;;;10.73;9.63;;;;;;;;;;5058297;28;20416;-82
2023/12/16 04:00:29;;;;;;;11.25;10.05;;;;;;;;;;5058445;28;20754;-82
2023/12/16 04:02:55;;;;;;;10.13;9.13;;;;;;;;;;5058100;28;20388;-82
2023/12/16 04:05:21;;;;;;;10.52;9.48;;;;;;;;;;5058185;28;20412;-82
2023/12/16 04:07:47;;;;;;;11.18;10.07;;;;;;;;;;5058065;28;20394;-83
2023/12/16 04:10:13;;;;;;;10.25;9.18;;;;;;;;;;5058015;28;20399;-82
2023/12/16 04:12:40;;;;;;;10.80;9.65;;;;;;;;;;5058359;28;20424;-82
2023/12/16 04:15:06;;;;;;;11.23;10.05;;;;;;;;;;5057401;28;20435;-82
2023/12/16 04:17:32;;;;;;;11.57;10.27;;;;;;;;;;5055955;28;20382;-82
2023/12/16 04:19:58;;;;;;;11.82;10.60;;;;;;;;;;5054906;28;20393;-82
2023/12/16 04:22:24;;;;;;;12.38;11.00;;;;;;;;;;5057743;28;20381;-82
2023/12/16 04:24:50;;;;;;;12.13;10.77;;;;;;;;;;5057886;28;20408;-82
2023/12/16 04:27:17;;;;;;;16.27;12.43;;;;;;;;;;5057565;28;20377;-82
2023/12/16 04:29:42;;;;;;;19.83;13.95;;;;;;;;;;5056458;28;20390;-82
2023/12/16 04:32:08;;;;;;;16.60;12.93;;;;;;;;;;5058009;28;20420;-82
2023/12/16 04:34:34;;;;;;;18.40;13.50;;;;;;;;;;5058122;28;20946;-82
2023/12/16 04:37:00;;;;;;;17.70;13.13;;;;;;;;;;5071462;28;20380;-82
2023/12/16 04:39:26;;;;;;;19.33;13.98;;;;;;;;;;5057084;28;20392;-82
2023/12/16 04:41:52;;;;;;;19.55;13.80;;;;;;;;;;5057218;28;20390;-82
2023/12/16 04:44:18;;;;;;;20.40;13.82;;;;;;;;;;5057132;28;20800;-82
2023/12/16 04:46:44;;;;;;;20.63;14.30;;;;;;;;;;5056625;28;20432;-82
2023/12/16 04:49:11;;;;;;;23.60;14.45;;;;;;;;;;5072058;28;20388;-82
2023/12/16 04:51:37;;;;;;;21.75;14.18;;;;;;;;;;5057862;28;20732;-82
2023/12/16 04:54:03;;;;;;;19.95;14.20;;;;;;;;;;5058548;28;20386;-82
2023/12/16 04:56:29;;;;;;;19.75;14.35;;;;;;;;;;5058132;28;20396;-82
2023/12/16 04:58:55;;;;;;;15.13;12.45;;;;;;;;;;5057649;28;20385;-82
2023/12/16 05:01:22;;;;;;;14.55;13.02;;;;;;;;;;5059291;28;20447;-82
2023/12/16 05:03:49;;;;;;;16.55;12.50;;;;;;;;;;5057372;28;20385;-82
2023/12/16 05:06:15;;;;;;;21.40;13.00;;;;;;;;;;5073588;28;20405;-82
2023/12/16 05:08:41;;;;;;;18.35;13.73;;;;;;;;;;5061381;28;20717;-82
2023/12/16 05:11:07;;;;;;;16.45;13.48;;;;;;;;;;5061483;28;20433;-82
2023/12/16 05:13:33;;;;;;;16.07;13.00;;;;;;;;;;5061834;28;20792;-82
2023/12/16 05:15:59;;;;;;;16.25;12.38;;;;;;;;;;5061589;28;20385;-82
2023/12/16 05:18:25;;;;;;;22.50;13.75;;;;;;;;;;5061392;28;20389;-82
2023/12/16 05:20:50;;;;;;;18.25;14.55;;;;;;;;;;5060402;28;20416;-82
2023/12/16 05:23:17;;;;;;;18.38;13.73;;;;;;;;;;5066835;28;20417;-82
2023/12/16 05:25:42;;;;;;;24.03;13.03;;;;;;;;;;5060867;28;20446;-82
2023/12/16 05:28:08;;;;;;;17.48;13.95;;;;;;;;;;5060207;28;20381;-82
2023/12/16 05:30:35;;;;;;;17.48;13.50;;;;;;;;;;5061190;28;20847;-82
2023/12/16 05:33:01;;;;;;;14.95;12.63;;;;;;;;;;5061108;28;20515;-82
2023/12/16 05:35:27;;;;;;;17.33;13.75;;;;;;;;;;5062535;28;20404;-82
2023/12/16 05:37:53;;;;;;;16.95;13.30;;;;;;;;;;5080086;28;20411;-82
2023/12/16 05:40:19;;;;;;;15.50;12.30;;;;;;;;;;5066701;28;20389;-82
2023/12/16 05:42:45;;;;;;;16.80;12.90;;;;;;;;;;5072767;28;20393;-82
2023/12/16 05:45:11;;;;;;;15.13;13.27;;;;;;;;;;5060930;28;20459;-82
2023/12/16 05:47:37;;;;;;;16.48;12.65;;;;;;;;;;5066932;28;20429;-82
2023/12/16 05:50:03;;;;;;;17.70;13.50;;;;;;;;;;5070242;28;20381;-82
2023/12/16 05:52:29;;;;;;;16.03;12.63;;;;;;;;;;5062132;28;20385;-82
2023/12/16 05:54:55;;;;;;;17.98;13.52;;;;;;;;;;5068918;28;20845;-82
2023/12/16 05:57:21;;;;;;;19.98;14.15;;;;;;;;;;5064652;28;20381;-82
2023/12/16 05:59:47;;;;;;;17.88;13.38;;;;;;;;;;5061908;28;20389;-82
2023/12/16 06:02:13;;;;;;;17.23;12.90;;;;;;;;;;5061682;28;20389;-82
2023/12/16 06:04:39;;;;;;;19.08;12.23;;;;;;;;;;5082287;28;20418;-83
2023/12/16 06:07:05;;;;;;;23.23;12.68;;;;;;;;;;5069714;28;20384;-82
2023/12/16 06:09:32;;;;;;;19.50;13.38;;;;;;;;;;5061522;28;20377;-82
2023/12/16 06:11:58;;;;;;;22.80;13.80;;;;;;;;;;5061893;28;20374;-82
2023/12/16 06:14:24;;;;;;;18.13;13.43;;;;;;;;;;5061256;28;20385;-82
2023/12/16 06:16:50;;;;;;;19.83;13.50;;;;;;;;;;5060690;28;20381;-83
2023/12/16 06:19:16;;;;;;;18.50;14.00;;;;;;;;;;5061852;28;20378;-82
2023/12/16 06:21:42;;;;;;;18.45;13.73;;;;;;;;;;5067821;28;20492;-82
2023/12/16 06:24:10;;;;;;;18.77;14.00;;;;;;;;;;5061662;28;20404;-82
2023/12/16 06:26:36;;;;;;;36.08;13.73;;;;;;;;;;5061869;28;20416;-82
2023/12/16 06:29:02;;;;;;;24.20;13.30;;;;;;;;;;5060757;28;20380;-82
2023/12/16 06:31:28;;;;;;;18.77;13.18;;;;;;;;;;5061935;28;20431;-82
2023/12/16 06:33:54;;;;;;;20.17;14.43;;;;;;;;;;5061782;28;20381;-83
2023/12/16 06:36:20;;;;;;;17.60;13.43;;;;;;;;;;5076793;28;20422;-83
2023/12/16 06:38:46;;;;;;;18.50;13.23;;;;;;;;;;5067063;28;20397;-83
2023/12/16 06:41:12;;;;;;;15.68;13.15;;;;;;;;;;5073772;28;20447;-84
2023/12/16 06:43:38;;;;;;;13.48;12.07;;;;;;;;;;5070033;28;20462;-83
2023/12/16 06:46:07;;;;;;;13.77;12.32;;;;;;;;;;5063182;28;20752;-83
2023/12/16 06:48:33;;;;;;;14.67;12.40;;;;;;;;;;5059599;28;20471;-83
2023/12/16 06:50:59;;;;;;;14.02;12.32;;;;;;;;;;5060325;28;20898;-83
2023/12/16 06:53:25;;;;;;;14.18;12.50;;;;;;;;;;5060144;28;20389;-83
2023/12/16 06:55:53;;;;;;;16.53;11.93;;;;;;;;;;5061213;28;20389;-83
2023/12/16 06:58:19;;;;;;;13.73;11.57;;;;;;;;;;5062217;28;20405;-83
2023/12/16 07:00:45;;;;;;;13.65;12.18;;;;;;;;;;5062300;28;20393;-83
2023/12/16 07:03:12;;;;;;;13.10;11.75;;;;;;;;;;5063021;28;20381;-83
2023/12/16 07:05:38;;;;;;;14.02;12.38;;;;;;;;;;5068803;28;20416;-83
2023/12/16 07:08:04;;;;;;;25.40;11.68;;;;;;;;;;5058279;28;20386;-83
2023/12/16 07:10:30;;;;;;;14.40;12.23;;;;;;;;;;5063081;28;20412;-83
2023/12/16 07:12:56;;;;;;;14.38;12.27;;;;;;;;;;5062115;28;20373;-83
2023/12/16 07:15:22;;;;;;;15.50;12.35;;;;;;;;;;5060660;28;20377;-83
2023/12/16 07:17:48;;;;;;;15.70;12.10;;;;;;;;;;5061690;28;20389;-83
2023/12/16 07:20:14;;;;;;;13.70;11.82;;;;;;;;;;5062543;28;20420;-83
2023/12/16 07:22:40;;;;;;;13.50;11.70;;;;;;;;;;5061616;28;20531;-83
2023/12/16 07:25:06;;;;;;;19.27;13.00;;;;;;;;;;5059092;28;20492;-83
2023/12/16 07:27:32;;;;;;;14.35;11.93;;;;;;;;;;5057923;28;20843;-83
2023/12/16 07:29:58;;;;;;;15.00;11.38;;;;;;;;;;5058847;28;20735;-83
2023/12/16 07:32:24;;;;;;;14.00;11.87;;;;;;;;;;5057030;28;20381;-83
2023/12/16 07:34:50;;;;;;;13.10;11.18;;;;;;;;;;5057013;28;20377;-83
2023/12/16 07:37:17;;;;;;;12.33;11.03;;;;;;;;;;5070782;28;20449;-83
2023/12/16 07:39:43;;;;;;;12.48;11.13;;;;;;;;;;5055486;28;20408;-83
2023/12/16 07:42:09;;;;;;;14.85;12.40;;;;;;;;;;5061404;28;20411;-83
2023/12/16 07:44:35;;;;;;;13.15;11.35;;;;;;;;;;5057134;28;20405;-83
2023/12/16 07:47:01;;;;;;;13.07;11.77;;;;;;;;;;5056172;28;20393;-83
2023/12/16 07:49:27;;;;;;;14.82;11.20;;;;;;;;;;5069235;28;20428;-83
2023/12/16 07:51:54;;;;;;;14.05;12.55;;;;;;;;;;5075671;28;20391;-83
2023/12/16 07:54:22;;;;;;;18.93;11.53;;;;;;;;;;5078884;28;20367;-83
2023/12/16 07:56:48;;;;;;;12.97;11.77;;;;;;;;;;5083481;28;20446;-83
2023/12/16 07:59:14;;;;;;;12.60;11.32;;;;;;;;;;5077716;28;20383;-83
2023/12/16 08:01:40;;;;;;;12.97;11.67;;;;;;;;;;5076829;28;20417;-83
2023/12/16 08:04:06;;;;;;;12.93;11.50;;;;;;;;;;5073952;28;20372;-84
2023/12/16 08:06:32;;;;;;;15.00;12.50;;;;;;;;;;5080591;28;20405;-83
2023/12/16 08:08:58;;;;;;;16.90;13.97;;;;;;;;;;5088588;28;20418;-81
2023/12/16 08:11:24;;;;;;;13.95;12.50;;;;;;;;;;5077064;28;20381;-81
2023/12/16 08:13:50;;;;;;;15.63;13.20;;;;;;;;;;5079440;28;20379;-84
2023/12/16 08:16:16;;;;;;;15.23;12.77;;;;;;;;;;5076101;28;20406;-84
2023/12/16 08:18:42;;;;;;;13.93;12.43;;;;;;;;;;5077411;28;20372;-84
2023/12/16 08:21:08;;;;;;;13.20;11.80;;;;;;;;;;5053370;28;20383;-83
2023/12/16 08:23:34;;;;;;;13.07;11.65;;;;;;;;;;5078539;28;20394;-84
2023/12/16 08:26:00;;;;;;;13.02;11.65;;;;;;;;;;5078576;28;20754;-83
2023/12/16 08:28:26;;;;;;;12.97;11.57;;;;;;;;;;5099008;28;20370;-83
2023/12/16 08:30:53;;;;;;;12.23;10.98;;;;;;;;;;5077489;28;20388;-82
2023/12/16 08:33:19;;;;;;;14.00;12.33;;;;;;;;;;5075708;28;20872;-85
2023/12/16 08:35:45;;;;;;;13.25;11.85;;;;;;;;;;5078366;28;20418;-82
2023/12/16 08:38:11;;;;;;;13.07;11.70;;;;;;;;;;5066412;28;20772;-83
2023/12/16 08:40:38;;;;;;;12.48;11.27;;;;;;;;;;5077616;28;20417;-81
2023/12/16 08:43:04;;;;;;;12.00;10.80;;;;;;;;;;5068614;28;20396;-81
2023/12/16 08:45:30;;;;;;;13.07;11.73;;;;;;;;;;5074621;28;20764;-84
2023/12/16 08:47:56;;;;;;;12.47;11.20;;;;;;;;;;5077889;28;20410;-81
2023/12/16 08:50:23;;;;;;;12.20;11.00;;;;;;;;;;5078485;28;20380;-82
2023/12/16 08:52:49;;;;;;;13.23;11.83;;;;;;;;;;5078029;28;20422;-81
2023/12/16 08:55:15;;;;;;;14.40;11.65;;;;;;;;;;5079845;28;20868;-82
2023/12/16 08:57:41;;;;;;;13.20;11.90;;;;;;;;;;5079399;28;20392;-82
2023/12/16 09:00:11;;;;;;;12.93;11.32;;;;;;;;;;5079177;28;20406;-82
2023/12/16 09:02:37;;;;;;;14.30;11.95;;;;;;;;;;5079795;28;20376;-84
2023/12/16 09:05:03;;;;;;;13.35;11.50;;;;;;;;;;5078567;28;20762;-83
2023/12/16 09:07:28;;;;;;;15.07;12.40;;;;;;;;;;5080332;28;20605;-82
2023/12/16 09:09:54;;;;;;;14.40;12.32;;;;;;;;;;5079607;28;20873;-82
2023/12/16 09:12:20;;;;;;;13.18;11.77;;;;;;;;;;5067143;28;20389;-83
2023/12/16 09:14:46;;;;;;;15.48;12.48;;;;;;;;;;5079733;28;20383;-84
2023/12/16 09:17:12;;;;;;;14.90;12.27;;;;;;;;;;5078828;28;20372;-83
2023/12/16 09:19:38;;;;;;;14.48;11.85;;;;;;;;;;5078553;28;20891;-84
2023/12/16 09:22:05;;;;;;;14.35;11.85;;;;;;;;;;5054273;28;20417;-84
2023/12/16 09:24:33;;;;;;;14.93;12.55;;;;;;;;;;5074856;28;20386;-82
2023/12/16 09:26:59;;;;;;;18.25;13.60;;;;;;;;;;5078759;28;20841;-83
2023/12/16 09:29:25;;;;;;;18.88;13.98;;;;;;;;;;5079123;28;20429;-83
2023/12/16 09:31:51;;;;;;;15.77;12.77;;;;;;;;;;5078839;28;20376;-83
2023/12/16 09:34:17;;;;;;;15.63;12.20;;;;;;;;;;5078920;28;20383;-84
2023/12/16 09:36:43;;;;;;;14.70;12.00;;;;;;;;;;5076446;28;20390;-83
2023/12/16 09:39:10;;;;;;;14.45;12.05;;;;;;;;;;5059355;28;20381;-83
2023/12/16 09:41:44;;;;;;;16.23;13.10;;;;;;;;;;5072129;28;20463;-83
2023/12/16 09:44:13;;;;;;;22.70;16.60;;;;;;;;;;5060550;28;20882;-83
2023/12/16 09:46:39;;;;;;;22.50;15.80;;;;;;;;;;5060371;28;20425;-83
2023/12/16 09:49:05;;;;;;;32.83;20.75;;;;;;;;;;5058906;28;20385;-83
2023/12/16 09:51:31;;;;;;;33.03;20.90;;;;;;;;;;5058666;28;20828;-83
2023/12/16 09:53:57;;;;;;;32.78;20.13;;;;;;;;;;5074153;28;20391;-83
2023/12/16 09:56:23;;;;;;;29.30;20.73;;;;;;;;;;5058268;28;20389;-83
2023/12/16 09:58:51;;;;;;;25.63;17.17;;;;;;;;;;5059786;28;20385;-83
2023/12/16 10:01:18;;;;;;;26.67;18.63;;;;;;;;;;5058778;28;20381;-83
2023/12/16 10:03:46;;;;;;;22.55;17.58;;;;;;;;;;5071824;28;20394;-83
2023/12/16 10:06:12;;;;;;;23.00;16.27;;;;;;;;;;5059709;28;20755;-84
2023/12/16 10:08:39;;;;;;;21.15;17.42;;;;;;;;;;5052205;28;20387;-83
2023/12/16 10:11:05;;;;;;;25.88;17.55;;;;;;;;;;5044336;28;20394;-82
2023/12/16 10:13:32;;;;;;;25.77;17.95;;;;;;;;;;5040686;28;20508;-83
2023/12/16 10:15:59;;;;;;;26.60;19.15;;;;;;;;;;5072586;28;20386;-83
2023/12/16 10:18:28;;;;;;;27.08;17.55;;;;;;;;;;5042153;28;20397;-84
2023/12/16 10:20:57;;;;;;;23.07;16.60;;;;;;;;;;5060872;28;20386;-83
2023/12/16 10:23:23;;;;;;;19.58;14.80;;;;;;;;;;5059121;28;20409;-83
2023/12/16 10:25:50;;;;;;;21.23;14.88;;;;;;;;;;5059087;28;20921;-83
2023/12/16 10:28:18;;;;;;;19.05;14.88;;;;;;;;;;5073952;28;20402;-83
2023/12/16 10:30:44;;;;;;;19.73;15.13;;;;;;;;;;5060312;28;20408;-83
2023/12/16 10:33:10;;;;;;;21.17;15.68;;;;;;;;;;5058833;28;20381;-83
2023/12/16 10:35:37;;;;;;;23.55;16.13;;;;;;;;;;5063367;28;20376;-83
2023/12/16 10:38:04;;;;;;;56.55;34.85;;;;;;;;;;5067787;28;20377;-84
2023/12/16 10:40:33;;;;;;;35.55;22.58;;;;;;;;;;5044227;28;20922;-83
2023/12/16 10:42:59;;;;;;;36.00;22.52;;;;;;;;;;5070880;28;20917;-84
2023/12/16 10:45:25;;;;;;;24.20;17.27;;;;;;;;;;5059190;28;20409;-83
2023/12/16 10:47:56;;;;;;;45.83;28.95;;;;;;;;;;5041411;28;20452;-84
2023/12/16 10:50:23;;;;;;;25.80;18.88;;;;;;;;;;5059597;28;20460;-83
2023/12/16 10:52:53;;;;;;;22.38;16.58;;;;;;;;;;5048049;28;20388;-83
2023/12/16 10:55:23;;;;;;;19.83;14.95;;;;;;;;;;5067494;28;20482;-84
2023/12/16 10:57:55;;;;;;;21.33;15.57;;;;;;;;;;5060112;28;20377;-83
2023/12/16 11:00:24;;;;;;;21.40;15.30;;;;;;;;;;5061968;28;20751;-83
2023/12/16 11:03:02;;;;;;;20.98;15.20;;;;;;;;;;5060364;28;20859;-83
2023/12/16 11:05:36;;;;;;;19.75;15.45;;;;;;;;;;5060767;28;20408;-83
2023/12/16 11:08:03;;;;;;;18.52;13.57;;;;;;;;;;5060946;28;20386;-82
2023/12/16 11:10:30;;;;;;;17.17;13.27;;;;;;;;;;5058540;28;20449;-82
2023/12/16 11:12:57;;;;;;;18.27;14.40;;;;;;;;;;5061165;28;20447;-82
2023/12/16 11:15:26;;;;;;;24.45;17.42;;;;;;;;;;5065804;28;20391;-82
2023/12/16 11:18:01;;;;;;;29.85;21.52;;;;;;;;;;5062334;28;20740;-81
2023/12/16 11:20:41;;;;;;;20.63;14.77;;;;;;;;;;5058829;28;20479;-81
2023/12/16 11:23:09;;;;;;;17.63;13.68;;;;;;;;;;5055848;28;20373;-81
2023/12/16 11:25:35;;;;;;;23.67;16.55;;;;;;;;;;5038294;28;20411;-82
2023/12/16 11:28:02;;;;;;;17.05;13.48;;;;;;;;;;5069616;28;20853;-81
2023/12/16 11:30:34;;;;;;;19.20;13.93;;;;;;;;;;5056062;28;20796;-82
2023/12/16 11:33:01;;;;;;;19.48;14.18;;;;;;;;;;5069065;28;20430;-81
2023/12/16 11:35:37;;;;;;;16.63;13.27;;;;;;;;;;5058606;28;20790;-82
2023/12/16 11:38:09;;;;;;;17.33;13.20;;;;;;;;;;5064705;28;20381;-82
2023/12/16 11:40:41;;;;;;;15.18;12.10;;;;;;;;;;5060547;28;20382;-82
2023/12/16 11:43:07;;;;;;;15.05;12.10;;;;;;;;;;5065261;28;20859;-80
2023/12/16 11:45:37;;;;;;;13.82;12.20;;;;;;;;;;5055981;28;20417;-80
2023/12/16 11:48:04;;;;;;;17.80;14.45;;;;;;;;;;5055417;28;20410;-80
2023/12/16 11:50:31;;;;;;;16.15;12.80;;;;;;;;;;5055808;28;20373;-81
2023/12/16 11:52:57;;;;;;;15.40;12.25;;;;;;;;;;5064710;28;20384;-83
2023/12/16 11:55:23;;;;;;;15.13;12.73;;;;;;;;;;5062809;28;20393;-82
2023/12/16 11:57:49;;;;;;;14.40;12.60;;;;;;;;;;5056793;28;20401;-81
2023/12/16 12:00:16;;;;;;;13.20;11.80;;;;;;;;;;5055752;28;20386;-82
2023/12/16 12:02:43;;;;;;;13.50;11.85;;;;;;;;;;5070058;28;20381;-81
2023/12/16 12:05:12;;;;;;;14.07;11.60;;;;;;;;;;5055729;28;20444;-81
2023/12/16 12:07:41;;;;;;;14.60;12.80;;;;;;;;;;5058373;28;20815;-82
2023/12/16 12:10:09;;;;;;;13.70;12.20;;;;;;;;;;5067107;28;20386;-82
2023/12/16 12:12:35;;;;;;;13.98;12.52;;;;;;;;;;5057635;28;20937;-82
2023/12/16 12:15:01;;;;;;;14.60;12.98;;;;;;;;;;5055729;28;20863;-81
2023/12/16 12:17:28;;;;;;;14.38;12.73;;;;;;;;;;5054369;28;20377;-82
2023/12/16 12:19:57;;;;;;;14.82;12.50;;;;;;;;;;5054928;28;20916;-80
2023/12/16 12:22:23;;;;;;;17.73;13.63;;;;;;;;;;5054936;28;20386;-81
2023/12/16 12:24:50;;;;;;;14.93;12.73;;;;;;;;;;5054681;28;20477;-82
2023/12/16 12:27:16;;;;;;;16.40;13.05;;;;;;;;;;5065064;28;20395;-82
2023/12/16 12:29:57;;;;;;;16.73;12.88;;;;;;;;;;5058944;28;20381;-82
2023/12/16 12:32:24;;;;;;;16.88;14.05;;;;;;;;;;5065590;28;20398;-82
2023/12/16 12:35:02;;;;;;;20.23;15.13;;;;;;;;;;5060999;28;20381;-81
2023/12/16 12:37:37;;;;;;;18.60;14.35;;;;;;;;;;5054182;28;20851;-81
2023/12/16 12:40:05;;;;;;;19.30;14.77;;;;;;;;;;5054320;28;20389;-81
2023/12/16 12:42:43;;;;;;;18.60;14.20;;;;;;;;;;5054355;28;20417;-81
2023/12/16 12:45:09;;;;;;;18.23;13.98;;;;;;;;;;5053670;28;20404;-81
2023/12/16 12:47:35;;;;;;;15.13;12.63;;;;;;;;;;5058149;28;20491;-81
2023/12/16 12:50:02;;;;;;;19.02;14.32;;;;;;;;;;5068170;28;20418;-81
2023/12/16 12:52:40;;;;;;;19.30;14.57;;;;;;;;;;5074018;28;20383;-81
2023/12/16 12:55:06;;;;;;;16.67;13.25;;;;;;;;;;5070436;28;20865;-82
2023/12/16 12:57:32;;;;;;;15.88;12.90;;;;;;;;;;5079805;28;20707;-83
2023/12/16 13:00:05;;;;;;;13.55;12.13;;;;;;;;;;5080463;28;20385;-83
2023/12/16 13:02:31;;;;;;;13.85;12.25;;;;;;;;;;5076682;28;20709;-83
2023/12/16 13:04:57;;;;;;;16.30;13.43;;;;;;;;;;5074977;28;20410;-83
2023/12/16 13:07:23;;;;;;;15.40;13.30;;;;;;;;;;5074586;28;20380;-83
2023/12/16 13:09:49;;;;;;;16.17;12.25;;;;;;;;;;5080892;28;20402;-83
2023/12/16 13:12:16;;;;;;;17.38;13.35;;;;;;;;;;5072563;28;20733;-84
2023/12/16 13:14:45;;;;;;;17.77;13.88;;;;;;;;;;5075088;28;20384;-82
2023/12/16 13:17:11;;;;;;;17.23;14.30;;;;;;;;;;5075529;28;20383;-83
2023/12/16 13:19:37;;;;;;;17.35;13.55;;;;;;;;;;5081155;28;20376;-82
2023/12/16 13:22:04;;;;;;;16.08;12.40;;;;;;;;;;5078052;28;20413;-81
2023/12/16 13:24:30;;;;;;;15.10;12.32;;;;;;;;;;5074696;28;20388;-81
2023/12/16 13:26:59;;;;;;;15.45;12.90;;;;;;;;;;5075139;28;20372;-81
2023/12/16 13:29:25;;;;;;;19.10;14.00;;;;;;;;;;5080330;28;20886;-81
2023/12/16 13:31:53;;;;;;;17.33;13.50;;;;;;;;;;5086278;28;20378;-81
2023/12/16 13:34:19;;;;;;;17.15;12.98;;;;;;;;;;5076233;28;20407;-81
2023/12/16 13:36:45;;;;;;;15.52;12.90;;;;;;;;;;5077429;28;20376;-81
2023/12/16 13:39:11;;;;;;;15.87;12.47;;;;;;;;;;5057452;28;20936;-81
2023/12/16 13:41:37;;;;;;;16.90;13.50;;;;;;;;;;5069434;28;20380;-81
2023/12/16 13:44:03;;;;;;;20.27;14.07;;;;;;;;;;5058067;28;20378;-81
2023/12/16 13:46:30;;;;;;;15.70;13.25;;;;;;;;;;5066254;28;20411;-82
2023/12/16 13:48:57;;;;;;;17.33;13.43;;;;;;;;;;5075221;28;20416;-83
2023/12/16 13:51:23;;;;;;;15.77;13.05;;;;;;;;;;5059930;28;20377;-82
2023/12/16 13:53:49;;;;;;;15.93;12.73;;;;;;;;;;5051471;28;20498;-82
2023/12/16 13:56:15;;;;;;;14.23;12.70;;;;;;;;;;5067691;28;20444;-82
2023/12/16 13:58:41;;;;;;;15.65;12.68;;;;;;;;;;5058382;28;20393;-82
2023/12/16 14:01:07;;;;;;;14.75;12.68;;;;;;;;;;5066587;28;20384;-82
2023/12/16 14:03:33;;;;;;;19.02;14.30;;;;;;;;;;5073774;28;20885;-82
2023/12/16 14:05:58;;;;;;;17.92;13.57;;;;;;;;;;5058217;28;20405;-82
2023/12/16 14:08:24;;;;;;;16.95;13.40;;;;;;;;;;5058236;28;20377;-82
2023/12/16 14:10:50;;;;;;;23.43;16.43;;;;;;;;;;5058233;28;20523;-82
2023/12/16 14:13:16;;;;;;;22.27;16.75;;;;;;;;;;5068949;28;20372;-82
2023/12/16 14:15:42;;;;;;;19.02;15.77;;;;;;;;;;5060805;28;20464;-84
2023/12/16 14:18:08;;;;;;;17.50;13.87;;;;;;;;;;5057084;28;20420;-82
2023/12/16 14:20:34;;;;;;;16.80;13.45;;;;;;;;;;5072662;28;20727;-83